Impacts METAR Board INFO
IDs:

KSTL - St Louis/Lambert Int, MO, US

Updated at: 2019 UTC 18 Feb 2018
Potential Impact None Slight Moderate High
Time18/08Z 18/09Z 18/10Z 18/11Z 18/12Z 18/13Z 18/14Z 18/15Z 18/16Z 18/17Z 18/18Z 18/19Z 18/20Z
VIS7 7 10 10 10 10 10 10 10 10 10 10 10
CIG-- -- -- -- -- 250 250 250 250 250 250 250 250
CoverCLRCLRCLRCLRCLRBKNBKNBKNBKNBKNBKNOVCOVC
FltCatVFRVFRVFRVFRVFRVFRVFRVFRVFRVFRVFRVFRVFR
WX--------------------------
WDir00130140130140150140140140150170150
WSpd0 0 3 7 7 8 8 8 17 11 17 18 12
WGst-- -- -- -- -- -- -- -- -- -- 23 -- 21
Raw hourly METARs
KSTL 180751Z 00000KT 7SM CLR M02/M03 A3027 RMK AO2 SLP259 T10221028
KSTL 180851Z 00000KT 7SM CLR M03/M03 A3028 RMK AO2 SLP263 T10281033 51013
KSTL 180951Z 13003KT 10SM CLR M02/M03 A3027 RMK AO2 SLP259 T10171028
KSTL 181051Z 14007KT 10SM CLR M02/M03 A3026 RMK AO2 SLP255 T10171028
KSTL 181151Z 13007KT 10SM CLR 01/M02 A3026 RMK AO2 SLP254 70010 T00061017 10011 21028 56006
KSTL 181251Z 14008KT 10SM FEW150 BKN250 02/M02 A3025 RMK AO2 SLP254 T00171017
KSTL 181351Z 15008KT 10SM BKN250 03/M01 A3025 RMK AO2 SLP252 T00281011
KSTL 181451Z 14008KT 10SM BKN250 04/M01 A3025 RMK AO2 SLP252 T00391011 56002
KSTL 181551Z 14017KT 10SM BKN250 07/M01 A3024 RMK AO2 SLP247 T00671011
KSTL 181651Z 14011KT 10SM BKN250 08/M01 A3022 RMK AO2 SLP240 T00831011
KSTL 181751Z 15017G23KT 10SM BKN250 09/M02 A3017 RMK AO2 SLP226 T00891017 10094 20006 58024
KSTL 181851Z 17018KT 10SM OVC250 10/M03 A3012 RMK AO2 PK WND 15026/1835 SLP208 T01001033
KSTL 181951Z 15012G21KT 10SM OVC250 11/M02 A3008 RMK AO2 SLP192 T01061022